createdAt,value
2022-10-17T00:00:52.948Z,100855.56
2022-10-17T00:03:20.795Z,100857.47
2022-10-17T00:05:49.602Z,100864.34
2022-10-17T00:08:19.374Z,100868.44
2022-10-17T00:10:55.904Z,100865.81
2022-10-17T00:13:23.893Z,100885.91
2022-10-17T00:15:53.235Z,100875.47
2022-10-17T00:18:21.291Z,100887.47
2022-10-17T00:20:49.129Z,100889.34
2022-10-17T00:23:17.201Z,100891.75
2022-10-17T00:25:45.055Z,100896.16
2022-10-17T00:28:13.412Z,100895.13
2022-10-17T00:30:41.401Z,100916.66
2022-10-17T00:33:10.630Z,100916.66
2022-10-17T00:35:38.468Z,100926.91
2022-10-17T00:38:06.331Z,100918.34
2022-10-17T00:40:34.164Z,100933.16
2022-10-17T00:43:02.151Z,100938.38
2022-10-17T00:45:31.487Z,100941.09
2022-10-17T00:48:04.372Z,100949.03
2022-10-17T00:50:35.563Z,100954.38
2022-10-17T00:53:06.478Z,100951.84
2022-10-17T00:55:38.129Z,100956.16
2022-10-17T00:58:07.686Z,100953.66
2022-10-17T01:00:36.973Z,100961.59
2022-10-17T01:03:05.036Z,100957.28
2022-10-17T01:05:34.483Z,100966.16
2022-10-17T01:08:03.263Z,100963.56
2022-10-17T01:10:35.521Z,100968.06
2022-10-17T01:13:13.940Z,100973.38
2022-10-17T01:15:54.535Z,100988.00
2022-10-17T01:18:35.216Z,100993.75
2022-10-17T01:21:31.384Z,100993.13
2022-10-17T01:24:17.043Z,100991.44
2022-10-17T01:27:09.865Z,100991.75
2022-10-17T01:29:54.234Z,100998.75
2022-10-17T01:32:30.787Z,101007.63
2022-10-17T01:35:03.973Z,101015.47
2022-10-17T01:37:37.039Z,101011.91
2022-10-17T01:40:10.600Z,101012.00
2022-10-17T01:42:45.373Z,101013.97
2022-10-17T01:45:18.486Z,101027.59
2022-10-17T01:47:51.983Z,101033.75
2022-10-17T01:50:24.101Z,101047.94
2022-10-17T01:52:55.978Z,101067.34
2022-10-17T01:55:28.843Z,101061.19
2022-10-17T01:58:00.467Z,101061.94
2022-10-17T02:00:28.963Z,101069.88
2022-10-17T02:03:01.509Z,101074.44
2022-10-17T02:05:34.277Z,101074.53
2022-10-17T02:08:02.106Z,101089.38
2022-10-17T02:10:37.662Z,101088.44
2022-10-17T02:13:11.881Z,101095.59
2022-10-17T02:15:51.674Z,101098.31
2022-10-17T02:18:33.676Z,101110.66
2022-10-17T02:21:06.665Z,101101.19
2022-10-17T02:23:43.314Z,101106.34
2022-10-17T02:26:14.236Z,101102.25
2022-10-17T02:28:48.514Z,101113.53
2022-10-17T02:31:19.313Z,101112.88
2022-10-17T02:33:53.236Z,101124.16
2022-10-17T02:36:24.177Z,101130.28
2022-10-17T02:38:54.900Z,101142.53
2022-10-17T02:41:24.891Z,101139.06
2022-10-17T02:43:57.637Z,101136.66
2022-10-17T02:46:29.790Z,101133.84
2022-10-17T02:49:04.206Z,101144.47
2022-10-17T02:51:42.024Z,101149.44
2022-10-17T02:54:15.530Z,101151.28
2022-10-17T02:56:48.625Z,101155.69
2022-10-17T02:59:19.184Z,101157.53
2022-10-17T03:01:47.458Z,101175.06
2022-10-17T03:04:16.757Z,101182.97
2022-10-17T03:06:45.905Z,101186.06
2022-10-17T03:09:13.838Z,101194.72
2022-10-17T03:11:41.719Z,101200.03
2022-10-17T03:14:09.754Z,101209.56
2022-10-17T03:16:37.863Z,101210.38
2022-10-17T03:19:05.706Z,101208.91
2022-10-17T03:21:36.487Z,101216.81
2022-10-17T03:24:04.433Z,101219.50
2022-10-17T03:26:32.363Z,101212.63
2022-10-17T03:29:00.342Z,101220.63
2022-10-17T03:31:28.210Z,101227.53
2022-10-17T03:33:56.065Z,101230.31
2022-10-17T03:36:23.953Z,101239.81
2022-10-17T03:38:57.159Z,101245.97
2022-10-17T03:41:25.018Z,101261.03
2022-10-17T03:43:53.987Z,101269.63
2022-10-17T03:46:21.927Z,101272.41
2022-10-17T03:48:49.806Z,101282.84
2022-10-17T03:51:17.672Z,101290.84
2022-10-17T03:53:45.728Z,101293.47
2022-10-17T03:56:17.664Z,101304.06
2022-10-17T03:58:45.797Z,101299.78
2022-10-17T04:01:16.056Z,101303.22
2022-10-17T04:03:44.632Z,101312.16
2022-10-17T04:06:14.131Z,101320.94
2022-10-17T04:08:42.768Z,101323.63
2022-10-17T04:11:14.667Z,101325.28
2022-10-17T04:13:43.952Z,101338.50
2022-10-17T04:16:14.215Z,101340.25
2022-10-17T04:18:42.439Z,101348.09
2022-10-17T04:21:10.988Z,101352.56
2022-10-17T04:23:38.882Z,101351.97
2022-10-17T04:26:07.668Z,101355.59
2022-10-17T04:28:37.113Z,101365.03
2022-10-17T04:31:09.421Z,101386.81
2022-10-17T04:33:37.352Z,101387.31
2022-10-17T04:36:07.614Z,101379.66
2022-10-17T04:38:35.769Z,101397.19
2022-10-17T04:41:06.116Z,101393.72
2022-10-17T04:43:34.467Z,101406.19
2022-10-17T04:46:04.923Z,101415.59
2022-10-17T04:48:34.411Z,101421.56
2022-10-17T04:51:03.917Z,101424.34
2022-10-17T04:53:33.050Z,101427.88
2022-10-17T04:56:01.151Z,101433.19
2022-10-17T04:58:29.904Z,101435.72
2022-10-17T05:00:58.379Z,101446.38
2022-10-17T05:03:26.262Z,101453.41
2022-10-17T05:05:55.558Z,101452.53
2022-10-17T05:08:23.418Z,101458.59
2022-10-17T05:10:51.310Z,101472.63
2022-10-17T05:13:19.204Z,101476.03
2022-10-17T05:15:47.092Z,101488.22
2022-10-17T05:18:14.934Z,101474.50
2022-10-17T05:20:42.787Z,101490.00
2022-10-17T05:23:12.157Z,101489.22
2022-10-17T05:25:40.004Z,101485.75
2022-10-17T05:28:07.849Z,101498.06
2022-10-17T05:30:37.637Z,101493.91
2022-10-17T05:33:05.690Z,101502.72
2022-10-17T05:35:35.777Z,101506.94
2022-10-17T05:38:03.835Z,101511.19
2022-10-17T05:40:33.067Z,101512.00
2022-10-17T05:43:00.935Z,101530.34
2022-10-17T05:45:28.785Z,101530.34
2022-10-17T05:47:56.684Z,101535.47
2022-10-17T05:50:25.317Z,101539.09
2022-10-17T05:52:55.117Z,101548.75
2022-10-17T05:55:23.127Z,101543.53
2022-10-17T05:57:52.780Z,101547.97
2022-10-17T06:00:21.268Z,101563.56
2022-10-17T06:02:49.404Z,101561.91
2022-10-17T06:05:17.586Z,101579.28
2022-10-17T06:07:45.872Z,101581.75
2022-10-17T06:10:16.385Z,101586.13
2022-10-17T06:12:44.845Z,101595.63
2022-10-17T06:15:14.404Z,101603.38
2022-10-17T06:17:42.257Z,101613.88
2022-10-17T06:20:10.931Z,101606.84
2022-10-17T06:22:38.810Z,101618.88
2022-10-17T06:25:07.507Z,101625.09
2022-10-17T06:27:35.315Z,101620.75
2022-10-17T06:30:03.347Z,101620.75
2022-10-17T06:32:32.833Z,101619.75
2022-10-17T06:35:00.695Z,101618.00
2022-10-17T06:37:35.401Z,101625.75
2022-10-17T06:40:07.956Z,101621.34
2022-10-17T06:42:35.936Z,101623.81
2022-10-17T06:45:03.774Z,101631.56
2022-10-17T06:47:33.199Z,101635.81
2022-10-17T06:50:01.167Z,101643.53
2022-10-17T06:52:29.167Z,101659.19
2022-10-17T06:54:57.054Z,101672.00
2022-10-17T06:57:24.997Z,101669.25
2022-10-17T06:59:53.491Z,101668.34
2022-10-17T07:02:23.656Z,101668.28
2022-10-17T07:04:52.965Z,101680.31
2022-10-17T07:07:20.837Z,101688.00
2022-10-17T07:09:48.675Z,101700.03
2022-10-17T07:12:16.546Z,101697.34
2022-10-17T07:14:47.196Z,101703.28
2022-10-17T07:17:15.128Z,101705.66
2022-10-17T07:19:43.729Z,101703.84
2022-10-17T07:22:13.547Z,101707.28
2022-10-17T07:24:41.498Z,101709.72
2022-10-17T07:27:09.580Z,101709.59
2022-10-17T07:29:37.568Z,101710.28
2022-10-17T07:32:08.561Z,101724.19
2022-10-17T07:34:36.540Z,101730.25
2022-10-17T07:37:06.980Z,101737.84
2022-10-17T07:39:36.791Z,101746.69
2022-10-17T07:42:04.706Z,101753.38
2022-10-17T07:44:32.580Z,101767.13
2022-10-17T07:47:00.425Z,101762.59
2022-10-17T07:49:28.247Z,101770.28
2022-10-17T07:51:56.225Z,101766.59
2022-10-17T07:54:24.143Z,101776.81
2022-10-17T07:56:53.405Z,101777.34
2022-10-17T07:59:21.379Z,101776.38
2022-10-17T08:01:50.079Z,101780.59
2022-10-17T08:04:18.114Z,101784.88
2022-10-17T08:06:45.957Z,101785.44
2022-10-17T08:09:13.979Z,101790.59
2022-10-17T08:11:43.905Z,101788.59
2022-10-17T08:14:13.740Z,101797.09
2022-10-17T08:16:42.097Z,101784.75
2022-10-17T08:19:11.459Z,101791.50
2022-10-17T08:21:39.618Z,101801.72
2022-10-17T08:24:07.613Z,101804.94
2022-10-17T08:26:39.195Z,101798.63
2022-10-17T08:29:15.141Z,101793.00
2022-10-17T08:31:47.462Z,101797.00
2022-10-17T08:34:16.924Z,101800.06
2022-10-17T08:36:44.804Z,101807.50
2022-10-17T08:39:12.787Z,101809.19
2022-10-17T08:41:53.576Z,101819.09
2022-10-17T08:44:34.556Z,101810.06
2022-10-17T08:47:06.237Z,101815.22
2022-10-17T08:49:40.854Z,101822.94
2022-10-17T08:52:16.118Z,101823.72
2022-10-17T08:54:46.868Z,101829.63
2022-10-17T08:57:16.681Z,101821.72
2022-10-17T08:59:50.553Z,101834.78
2022-10-17T09:02:32.560Z,101827.59
2022-10-17T09:05:26.328Z,101833.38
2022-10-17T09:08:03.782Z,101839.88
2022-10-17T09:10:40.146Z,101858.81
2022-10-17T09:13:20.641Z,101862.09
2022-10-17T09:15:58.354Z,101867.94
2022-10-17T09:18:29.475Z,101877.13
2022-10-17T09:21:01.777Z,101887.38
2022-10-17T09:23:33.047Z,101895.06
2022-10-17T09:26:02.754Z,101888.91
2022-10-17T09:28:34.759Z,101901.91
2022-10-17T09:31:06.872Z,101899.13
2022-10-17T09:33:53.715Z,101907.56
2022-10-17T09:36:25.826Z,101904.88
2022-10-17T09:38:56.756Z,101918.91
2022-10-17T09:41:45.943Z,101916.03
2022-10-17T09:44:21.776Z,101922.78
2022-10-17T09:47:14.789Z,101927.78
2022-10-17T09:49:44.831Z,101935.38
2022-10-17T09:52:15.879Z,101922.47
2022-10-17T09:57:04.506Z,101914.59
2022-10-17T09:59:35.696Z,101934.38
2022-10-17T10:02:20.409Z,101932.78
2022-10-17T10:05:04.200Z,101930.06
2022-10-17T10:07:34.726Z,101923.72
2022-10-17T10:10:04.103Z,101927.03
2022-10-17T10:12:36.060Z,101925.09
2022-10-17T10:15:24.045Z,101936.22
2022-10-17T10:17:51.947Z,101937.78
2022-10-17T10:20:30.395Z,101937.78
2022-10-17T10:23:13.259Z,101946.38
2022-10-17T10:25:54.972Z,101942.84
2022-10-17T10:28:28.175Z,101950.25
2022-10-17T10:30:57.769Z,101948.25
2022-10-17T10:33:29.200Z,101948.84
2022-10-17T10:35:59.444Z,101948.59
2022-10-17T10:38:27.496Z,101952.78
2022-10-17T10:40:57.822Z,101948.16
2022-10-17T10:43:33.942Z,101952.19
2022-10-17T10:46:03.436Z,101962.25
2022-10-17T10:48:35.395Z,101969.00
2022-10-17T10:51:06.741Z,101979.09
2022-10-17T10:53:42.516Z,101969.38
2022-10-17T10:56:17.160Z,101976.13
2022-10-17T10:58:55.075Z,101962.16
2022-10-17T11:01:31.452Z,101957.50
2022-10-17T11:04:11.102Z,101952.91
2022-10-17T11:06:43.219Z,101956.47
2022-10-17T11:09:35.835Z,101952.56
2022-10-17T11:12:12.242Z,101957.53
2022-10-17T11:14:48.018Z,101966.06
2022-10-17T11:17:25.580Z,101958.59
2022-10-17T11:20:10.857Z,101952.22
2022-10-17T11:22:41.367Z,101939.66
2022-10-17T11:25:16.932Z,101948.28
2022-10-17T11:27:44.790Z,101945.19
2022-10-17T11:30:16.815Z,101957.31
2022-10-17T11:32:48.719Z,101955.34
2022-10-17T11:35:22.233Z,101946.91
2022-10-17T11:37:54.230Z,101952.25
2022-10-17T11:40:30.003Z,101962.00
2022-10-17T11:43:02.068Z,101975.03
2022-10-17T11:45:38.039Z,101975.88
2022-10-17T11:48:11.703Z,101970.63
2022-10-17T11:53:35.704Z,101975.72
2022-10-17T11:56:03.991Z,101983.22
2022-10-17T11:58:40.431Z,101972.72
2022-10-17T12:01:18.557Z,101972.91
2022-10-17T12:04:02.666Z,101978.78
2022-10-17T12:06:48.500Z,101972.72
2022-10-17T12:09:26.654Z,101979.75
2022-10-17T12:11:57.074Z,101980.59
2022-10-17T12:14:43.694Z,101967.06
2022-10-17T12:17:38.912Z,101968.66
2022-10-17T12:20:28.552Z,101957.13
2022-10-17T12:22:58.984Z,101959.78
2022-10-17T12:25:30.234Z,101954.88
2022-10-17T12:28:13.202Z,101959.78
2022-10-17T12:30:52.932Z,101960.69
2022-10-17T12:33:26.847Z,101965.19
2022-10-17T12:36:46.894Z,101962.09
2022-10-17T12:39:53.938Z,101968.19
2022-10-17T12:42:49.820Z,101959.28
2022-10-17T12:45:47.043Z,101958.34
2022-10-17T12:48:51.091Z,101966.31
2022-10-17T12:51:35.201Z,101971.28
2022-10-17T12:54:12.588Z,101973.19
2022-10-17T12:56:42.375Z,101975.63
2022-10-17T12:59:16.505Z,101977.13
2022-10-17T13:01:48.643Z,101968.28
2022-10-17T13:04:17.901Z,101970.09
2022-10-17T13:06:49.273Z,101967.75
2022-10-17T13:09:27.001Z,101978.06
2022-10-17T13:11:57.461Z,101975.44
2022-10-17T13:14:26.101Z,101968.94
2022-10-17T13:16:55.750Z,101982.53
2022-10-17T13:19:25.697Z,101980.88
2022-10-17T13:21:59.895Z,101976.63
2022-10-17T13:24:32.841Z,101982.81
2022-10-17T13:27:02.332Z,101989.94
2022-10-17T13:29:32.141Z,101982.06
2022-10-17T13:32:01.941Z,101982.25
2022-10-17T13:34:30.088Z,101984.88
2022-10-17T13:37:01.893Z,101978.19
2022-10-17T13:39:52.811Z,101975.66
2022-10-17T13:42:27.554Z,101975.03
2022-10-17T13:44:56.403Z,101971.53
2022-10-17T13:47:29.829Z,101974.00
2022-10-17T13:49:59.253Z,101970.59
2022-10-17T13:52:31.194Z,101973.13
2022-10-17T13:55:15.388Z,101978.47
2022-10-17T13:57:45.298Z,101985.53
2022-10-17T14:00:20.575Z,101972.66
2022-10-17T14:02:49.981Z,101978.66
2022-10-17T14:05:20.622Z,101981.28
2022-10-17T14:08:12.679Z,101970.03
2022-10-17T14:10:43.549Z,101966.66
2022-10-17T14:13:22.232Z,101960.63
2022-10-17T14:15:51.260Z,101954.66
2022-10-17T14:18:21.934Z,101947.69
2022-10-17T14:23:43.561Z,101956.78
2022-10-17T14:26:15.287Z,101955.19
2022-10-17T14:28:45.736Z,101944.78
2022-10-17T14:31:19.529Z,101941.91
2022-10-17T14:33:50.864Z,101936.31
2022-10-17T14:36:20.092Z,101921.59
2022-10-17T14:38:53.294Z,101924.41
2022-10-17T14:41:43.726Z,101939.38
2022-10-17T14:44:19.793Z,101937.88
2022-10-17T14:46:51.137Z,101939.75
2022-10-17T14:49:25.242Z,101942.53
2022-10-17T14:52:26.535Z,101967.88
2022-10-17T14:54:56.667Z,101967.94
2022-10-17T14:57:28.344Z,101961.84
2022-10-17T14:59:57.044Z,101959.13
2022-10-17T15:02:26.027Z,101953.97
2022-10-17T15:04:54.272Z,101959.88
2022-10-17T15:07:23.678Z,101953.97
2022-10-17T15:09:53.555Z,101955.00
2022-10-17T15:12:25.939Z,101949.75
2022-10-17T15:14:54.768Z,101947.19
2022-10-17T15:17:25.308Z,101957.69
2022-10-17T15:19:53.360Z,101958.78
2022-10-17T15:22:21.695Z,101946.78
2022-10-17T15:24:49.714Z,101955.59
2022-10-17T15:27:19.751Z,101949.47
2022-10-17T15:29:50.486Z,101947.03
2022-10-17T15:32:18.540Z,101942.66
2022-10-17T15:34:46.484Z,101934.88
2022-10-17T15:37:20.970Z,101926.13
2022-10-17T15:39:53.324Z,101908.72
2022-10-17T15:42:23.649Z,101908.81
2022-10-17T15:44:53.022Z,101898.59
2022-10-17T15:47:25.794Z,101897.81
2022-10-17T15:49:53.994Z,101903.06
2022-10-17T15:52:22.661Z,101895.38
2022-10-17T15:54:50.956Z,101890.88
2022-10-17T15:57:22.218Z,101896.97
2022-10-17T15:59:51.614Z,101912.88
2022-10-17T16:02:23.073Z,101937.66
2022-10-17T16:04:52.494Z,101936.91
2022-10-17T16:07:21.569Z,101950.00
2022-10-17T16:09:49.428Z,101957.13
2022-10-17T16:12:19.719Z,101924.72
2022-10-17T16:14:47.661Z,101929.03
2022-10-17T16:17:16.587Z,101941.22
2022-10-17T16:19:46.256Z,101924.72
2022-10-17T16:22:25.901Z,101922.97
2022-10-17T16:24:58.670Z,101922.09
2022-10-17T16:27:26.818Z,101922.09
2022-10-17T16:29:54.720Z,101915.00
2022-10-17T16:32:22.618Z,101891.41
2022-10-17T16:34:51.912Z,101880.06
2022-10-17T16:37:19.760Z,101918.63
2022-10-17T16:39:52.341Z,101918.06
2022-10-17T16:42:20.875Z,101892.00
2022-10-17T16:44:49.634Z,101908.69
2022-10-17T16:47:17.752Z,101910.72
2022-10-17T16:49:46.398Z,101907.22
2022-10-17T16:52:15.726Z,101897.59
2022-10-17T16:54:43.848Z,101888.88
2022-10-17T16:57:11.742Z,101883.72
2022-10-17T16:59:39.831Z,101884.75
2022-10-17T17:02:07.866Z,101879.50
2022-10-17T17:04:35.822Z,101881.38
2022-10-17T17:07:03.734Z,101877.06
2022-10-17T17:09:32.958Z,101878.66
2022-10-17T17:12:00.874Z,101881.28
2022-10-17T17:14:28.849Z,101892.78
2022-10-17T17:16:56.761Z,101892.78
2022-10-17T17:19:27.012Z,101895.41
2022-10-17T17:21:57.287Z,101890.25
2022-10-17T17:24:25.578Z,101892.88
2022-10-17T17:26:56.862Z,101893.72
2022-10-17T17:29:26.301Z,101891.38
2022-10-17T17:31:54.332Z,101876.63
2022-10-17T17:34:22.244Z,101889.72
2022-10-17T17:36:50.223Z,101891.44
2022-10-17T17:39:18.157Z,101883.75
2022-10-17T17:41:46.740Z,101885.53
2022-10-17T17:44:16.998Z,101875.22
2022-10-17T17:46:45.682Z,101867.19
2022-10-17T17:49:13.754Z,101868.03
2022-10-17T17:51:46.202Z,101861.34
2022-10-17T17:54:14.223Z,101870.91
2022-10-17T17:56:42.196Z,101856.94
2022-10-17T17:59:12.841Z,101864.66
2022-10-17T18:01:42.639Z,101866.41
2022-10-17T18:04:11.964Z,101863.06
2022-10-17T18:06:40.886Z,101865.59
2022-10-17T18:09:10.175Z,101867.34
2022-10-17T18:11:38.534Z,101861.34
2022-10-17T18:14:09.720Z,101860.50
2022-10-17T18:16:38.335Z,101857.97
2022-10-17T18:19:09.960Z,101861.41
2022-10-17T18:21:38.420Z,101855.44
2022-10-17T18:24:07.281Z,101838.00
2022-10-17T18:26:35.695Z,101841.66
2022-10-17T18:29:03.984Z,101826.97
2022-10-17T18:31:35.817Z,101840.88
2022-10-17T18:34:05.626Z,101838.34
2022-10-17T18:36:37.304Z,101826.09
2022-10-17T18:39:06.088Z,101826.19
2022-10-17T18:41:34.761Z,101830.66
2022-10-17T18:44:03.052Z,101822.91
2022-10-17T18:46:32.712Z,101816.75
2022-10-17T18:49:00.576Z,101817.00
2022-10-17T18:51:28.692Z,101813.69
2022-10-17T18:53:59.049Z,101805.84
2022-10-17T18:56:27.377Z,101807.72
2022-10-17T18:58:55.849Z,101806.84
2022-10-17T19:01:25.695Z,101805.19
2022-10-17T19:03:56.065Z,101802.56
2022-10-17T19:06:25.718Z,101801.97
2022-10-17T19:08:55.088Z,101804.06
2022-10-17T19:11:25.785Z,101811.09
2022-10-17T19:13:57.286Z,101807.78
2022-10-17T19:16:27.616Z,101810.66
2022-10-17T19:18:57.269Z,101803.91
2022-10-17T19:21:25.745Z,101806.69
2022-10-17T19:23:55.690Z,101812.84
2022-10-17T19:26:26.111Z,101809.47
2022-10-17T19:28:54.182Z,101803.63
2022-10-17T19:31:26.547Z,101804.66
2022-10-17T19:33:56.427Z,101804.66
2022-10-17T19:36:28.928Z,101804.66
2022-10-17T19:39:00.735Z,101809.03
2022-10-17T19:41:30.079Z,101813.53
2022-10-17T19:43:58.002Z,101794.44
2022-10-17T19:46:28.077Z,101796.13
2022-10-17T19:48:56.589Z,101792.84
2022-10-17T19:51:26.550Z,101783.09
2022-10-17T19:53:56.267Z,101780.50
2022-10-17T19:56:25.835Z,101775.41
2022-10-17T19:58:57.081Z,101773.06
2022-10-17T20:01:26.839Z,101766.44
2022-10-17T20:03:57.893Z,101766.59
2022-10-17T20:06:29.144Z,101773.59
2022-10-17T20:08:57.481Z,101774.25
2022-10-17T20:11:29.774Z,101769.28
2022-10-17T20:14:01.417Z,101765.34
2022-10-17T20:16:32.792Z,101764.56
2022-10-17T20:19:05.290Z,101764.56
2022-10-17T20:21:35.106Z,101761.25
2022-10-17T20:24:04.394Z,101763.03
2022-10-17T20:26:38.194Z,101763.13
2022-10-17T20:29:12.260Z,101756.09
2022-10-17T20:31:41.446Z,101758.78
2022-10-17T20:34:10.974Z,101753.72
2022-10-17T20:36:38.857Z,101751.31
2022-10-17T20:39:08.059Z,101752.97
2022-10-17T20:41:36.106Z,101752.22
2022-10-17T20:44:04.902Z,101742.69
2022-10-17T20:46:39.760Z,101747.13
2022-10-17T20:49:16.302Z,101735.78
2022-10-17T20:51:44.898Z,101732.47
2022-10-17T20:54:12.884Z,101733.25
2022-10-17T20:56:41.219Z,101732.38
2022-10-17T20:59:13.130Z,101726.47
2022-10-17T21:01:42.410Z,101730.00
2022-10-17T21:04:40.573Z,101722.25
2022-10-17T21:06:58.263Z,101725.78
2022-10-17T21:09:26.526Z,101724.09
2022-10-17T21:11:55.742Z,101715.41
2022-10-17T21:14:25.248Z,101712.88
2022-10-17T21:16:54.539Z,101702.59
2022-10-17T21:19:22.862Z,101698.19
2022-10-17T21:21:50.770Z,101697.19
2022-10-17T21:24:20.934Z,101702.50
2022-10-17T21:26:55.225Z,101701.72
2022-10-17T21:29:24.264Z,101693.13
2022-10-17T21:31:54.006Z,101685.28
2022-10-17T21:34:24.581Z,101674.06
2022-10-17T21:36:52.928Z,101674.97
2022-10-17T21:39:21.850Z,101680.28
2022-10-17T21:41:49.768Z,101668.16
2022-10-17T21:44:19.416Z,101677.75
2022-10-17T21:46:48.022Z,101670.00
2022-10-17T21:49:19.801Z,101667.38
2022-10-17T21:51:48.588Z,101658.78
2022-10-17T21:54:17.344Z,101663.25
2022-10-17T21:56:45.813Z,101660.97
2022-10-17T21:59:13.672Z,101656.59
2022-10-17T22:01:43.513Z,101652.44
2022-10-17T22:04:13.905Z,101649.16
2022-10-17T22:06:45.249Z,101639.00
2022-10-17T22:09:15.923Z,101634.81
2022-10-17T22:11:46.525Z,101627.06
2022-10-17T22:14:19.802Z,101631.41
2022-10-17T22:16:49.070Z,101608.84
2022-10-17T22:19:19.118Z,101607.06
2022-10-17T22:21:48.353Z,101602.75
2022-10-17T22:24:18.681Z,101595.09
2022-10-17T22:26:47.371Z,101603.09
2022-10-17T22:29:15.571Z,101609.09
2022-10-17T22:31:43.899Z,101609.09
2022-10-17T22:34:14.390Z,101616.16
2022-10-17T22:36:42.413Z,101609.16
2022-10-17T22:39:12.429Z,101609.16
2022-10-17T22:41:40.442Z,101611.69
2022-10-17T22:44:08.529Z,101608.16
2022-10-17T22:46:36.481Z,101611.69
2022-10-17T22:49:04.346Z,101603.09
2022-10-17T22:51:32.280Z,101593.41
2022-10-17T22:54:00.209Z,101588.25
2022-10-17T22:56:29.651Z,101588.41
2022-10-17T22:58:57.644Z,101570.31
2022-10-17T23:01:26.787Z,101527.81
2022-10-17T23:03:54.804Z,101513.16
2022-10-17T23:06:23.445Z,101496.63
2022-10-17T23:08:51.400Z,101495.78
2022-10-17T23:11:20.912Z,101488.97
2022-10-17T23:13:50.358Z,101489.91
2022-10-17T23:16:18.554Z,101510.00
2022-10-17T23:18:46.713Z,101528.47
2022-10-17T23:21:14.576Z,101543.19
2022-10-17T23:23:42.582Z,101542.28
2022-10-17T23:26:12.886Z,101540.50
2022-10-17T23:28:41.457Z,101537.16
2022-10-17T23:31:13.319Z,101538.81
2022-10-17T23:33:41.546Z,101554.41
2022-10-17T23:36:10.793Z,101551.72
2022-10-17T23:38:38.980Z,101556.09
2022-10-17T23:41:07.158Z,101548.50
2022-10-17T23:43:35.286Z,101549.44
2022-10-17T23:46:03.832Z,101548.50
2022-10-17T23:48:33.593Z,101541.59
2022-10-17T23:51:01.734Z,101518.25
2022-10-17T23:53:29.601Z,101525.06
2022-10-17T23:55:57.519Z,101519.78
2022-10-17T23:58:25.530Z,101531.16
